Time;durP1;ratioP1;P1;durP2;ratioP2;P2;SDS_P1;SDS_P2;PMS_P1;PMS_P2;Temp;Humidity;BMP_temperature;BMP_pressure;BME280_temperature;BME280_humidity;BME280_pressure;Samples;Min_cycle;Max_cycle;Signal;HPM_P1;HPM_P2
2023/03/19 00:01:04;;;;;;;3.13;2.27;;;8.50;99.90;;;;;;5021677;28;20463;-76
2023/03/19 00:03:30;;;;;;;3.90;2.20;;;8.50;99.90;;;;;;5023714;28;20196;-77
2023/03/19 00:05:55;;;;;;;3.73;2.47;;;8.50;99.90;;;;;;5014348;28;20413;-76
2023/03/19 00:08:21;;;;;;;4.53;2.03;;;8.40;99.90;;;;;;5012072;28;20681;-77
2023/03/19 00:10:47;;;;;;;4.63;2.03;;;8.50;99.90;;;;;;5012674;28;20651;-77
2023/03/19 00:13:13;;;;;;;6.77;2.43;;;8.40;99.90;;;;;;5031731;28;20185;-75
2023/03/19 00:15:38;;;;;;;2.40;1.70;;;8.50;99.90;;;;;;5032397;28;20178;-75
2023/03/19 00:18:05;;;;;;;6.40;1.93;;;8.50;99.90;;;;;;5031860;28;20204;-76
2023/03/19 00:20:30;;;;;;;2.07;1.73;;;8.50;99.90;;;;;;5032026;28;20166;-75
2023/03/19 00:22:56;;;;;;;3.10;1.93;;;8.50;99.90;;;;;;5021993;28;20424;-76
2023/03/19 00:25:22;;;;;;;2.30;2.00;;;8.50;99.90;;;;;;5030951;28;20182;-75
2023/03/19 00:27:47;;;;;;;2.37;2.17;;;8.60;99.90;;;;;;5031841;28;20515;-75
2023/03/19 00:30:14;;;;;;;2.77;2.20;;;8.60;99.90;;;;;;5023976;28;20421;-75
2023/03/19 00:32:40;;;;;;;5.03;2.13;;;8.50;99.90;;;;;;5024689;28;20225;-76
2023/03/19 00:35:07;;;;;;;4.87;2.43;;;8.50;99.90;;;;;;5030589;28;20412;-75
2023/03/19 00:37:33;;;;;;;7.13;2.37;;;8.50;99.90;;;;;;5032051;28;20518;-75
2023/03/19 00:39:59;;;;;;;2.73;2.43;;;8.50;99.90;;;;;;5023899;28;20933;-76
2023/03/19 00:42:24;;;;;;;3.73;2.90;;;8.50;99.90;;;;;;5032044;28;20444;-75
2023/03/19 00:44:50;;;;;;;3.10;2.10;;;8.50;99.90;;;;;;5031872;28;20180;-75
2023/03/19 00:47:16;;;;;;;5.23;2.73;;;8.50;99.90;;;;;;5028093;28;20424;-76
2023/03/19 00:49:41;;;;;;;2.90;2.20;;;8.50;99.90;;;;;;5020195;28;20206;-77
2023/03/19 00:52:07;;;;;;;2.50;2.20;;;8.50;99.90;;;;;;5030253;28;20292;-75
2023/03/19 00:54:33;;;;;;;5.37;3.10;;;8.50;99.90;;;;;;5031704;28;20206;-75
2023/03/19 00:56:59;;;;;;;4.10;3.70;;;8.50;99.90;;;;;;5030215;28;20658;-75
2023/03/19 00:59:25;;;;;;;8.50;2.90;;;8.50;99.90;;;;;;5025020;28;20506;-75
2023/03/19 01:01:51;;;;;;;5.57;3.00;;;8.60;99.90;;;;;;5031524;28;20460;-76
2023/03/19 01:04:17;;;;;;;3.90;3.50;;;8.60;99.90;;;;;;5031519;28;20177;-75
2023/03/19 01:06:43;;;;;;;4.83;3.50;;;8.60;99.90;;;;;;5030423;28;20424;-76
2023/03/19 01:09:09;;;;;;;6.17;3.30;;;8.60;99.90;;;;;;5031238;28;20420;-75
2023/03/19 01:11:35;;;;;;;10.67;3.43;;;8.70;99.90;;;;;;5031380;28;20236;-76
2023/03/19 01:14:01;;;;;;;5.00;3.23;;;8.70;99.90;;;;;;5022877;28;20465;-76
2023/03/19 01:16:27;;;;;;;5.80;3.27;;;8.70;99.90;;;;;;5026606;28;20424;-76
2023/03/19 01:18:53;;;;;;;4.20;2.47;;;8.70;99.90;;;;;;5028205;28;20464;-75
2023/03/19 01:21:19;;;;;;;4.10;3.40;;;8.70;99.90;;;;;;5031339;28;20630;-75
2023/03/19 01:23:45;;;;;;;10.33;3.00;;;8.80;99.90;;;;;;5023007;28;20243;-75
2023/03/19 01:26:11;;;;;;;5.83;3.13;;;8.80;99.90;;;;;;5031246;28;20517;-75
2023/03/19 01:28:37;;;;;;;3.00;2.23;;;8.80;99.90;;;;;;5031386;28;20224;-75
2023/03/19 01:31:07;;;;;;;5.00;3.23;;;8.80;99.90;;;;;;5030724;28;20972;-75
2023/03/19 01:33:32;;;;;;;4.60;3.60;;;8.90;99.90;;;;;;5031005;28;20185;-75
2023/03/19 01:36:01;;;;;;;6.03;3.50;;;8.90;99.90;;;;;;5030577;28;20431;-76
2023/03/19 01:38:27;;;;;;;4.83;3.30;;;8.90;99.90;;;;;;5029323;28;20216;-75
2023/03/19 01:40:52;;;;;;;130.03;37.47;;;8.90;99.90;;;;;;5030963;28;20443;-75
2023/03/19 01:43:21;;;;;;;105.17;13.27;;;8.90;99.90;;;;;;5022959;28;20553;-75
2023/03/19 01:45:50;;;;;;;99.63;12.03;;;8.90;99.90;;;;;;5023029;28;20549;-75
2023/03/19 01:48:42;;;;;;;115.53;18.63;;;8.90;99.90;;;;;;5027549;28;20424;-75
2023/03/19 01:51:12;;;;;;;1999.90;999.90;;;8.90;99.90;;;;;;5029923;28;20505;-76
2023/03/19 01:53:41;;;;;;;1999.90;999.90;;;9.00;99.90;;;;;;5022829;28;20428;-76
2023/03/19 01:56:25;;;;;;;1999.90;999.90;;;9.00;99.90;;;;;;5030871;28;20435;-76
2023/03/19 01:58:57;;;;;;;1999.90;999.90;;;9.10;99.90;;;;;;5030860;28;20468;-75
2023/03/19 03:32:00;;;;;;;5.07;3.90;;;9.60;99.90;;;;;;5395969;22;21037;-77
2023/03/19 03:34:25;;;;;;;3.90;3.67;;;9.50;99.90;;;;;;5011901;28;20401;-77
2023/03/19 03:36:51;;;;;;;6.70;3.20;;;9.60;99.90;;;;;;5021440;28;20183;-75
2023/03/19 03:39:17;;;;;;;7.93;4.20;;;9.60;99.90;;;;;;5040374;28;20271;-77
2023/03/19 03:41:44;;;;;;;3.73;3.43;;;9.60;99.90;;;;;;5025379;28;20682;-76
2023/03/19 03:44:10;;;;;;;4.27;3.87;;;9.60;99.90;;;;;;5020995;28;20424;-77
2023/03/19 03:46:35;;;;;;;6.97;4.03;;;9.60;99.90;;;;;;5013327;28;20270;-76
2023/03/19 03:49:01;;;;;;;5.60;4.20;;;9.50;99.90;;;;;;5012597;28;20182;-76
2023/03/19 03:51:27;;;;;;;4.40;4.10;;;9.50;99.90;;;;;;5012818;28;20596;-76
2023/03/19 03:53:52;;;;;;;3.43;3.20;;;9.50;99.90;;;;;;5019613;28;20243;-76
2023/03/19 03:56:18;;;;;;;4.43;3.90;;;9.50;99.90;;;;;;5013396;28;20186;-76
2023/03/19 03:58:43;;;;;;;4.20;3.80;;;9.50;99.90;;;;;;5026320;28;20201;-76
2023/03/19 04:01:14;;;;;;;5.53;3.90;;;9.50;99.90;;;;;;5031298;28;20692;-76
2023/03/19 04:03:40;;;;;;;5.27;4.50;;;9.50;99.90;;;;;;5026802;28;20182;-76
2023/03/19 04:06:05;;;;;;;4.30;4.00;;;9.40;99.90;;;;;;5012815;28;20947;-77
2023/03/19 04:08:31;;;;;;;4.00;3.70;;;9.40;99.90;;;;;;5016964;28;20186;-77
2023/03/19 04:10:57;;;;;;;4.37;3.93;;;9.50;99.90;;;;;;5024252;28;20214;-77
2023/03/19 04:13:23;;;;;;;3.83;3.53;;;9.50;99.90;;;;;;5012053;28;20558;-76
2023/03/19 04:15:48;;;;;;;4.90;4.50;;;9.50;99.90;;;;;;5020514;28;20183;-76
2023/03/19 04:18:14;;;;;;;7.10;4.90;;;9.40;99.90;;;;;;5021344;28;20461;-76
2023/03/19 04:20:40;;;;;;;5.23;4.10;;;9.40;99.90;;;;;;5013766;28;20225;-77
2023/03/19 04:23:05;;;;;;;6.00;4.97;;;9.40;99.90;;;;;;5021668;28;20933;-75
2023/03/19 04:25:31;;;;;;;11.73;5.20;;;9.40;99.90;;;;;;5033151;28;20645;-76
2023/03/19 04:27:57;;;;;;;6.00;5.10;;;9.40;99.90;;;;;;5024479;28;20185;-76
2023/03/19 04:30:23;;;;;;;4.03;3.73;;;9.40;99.90;;;;;;5016185;28;20654;-77
2023/03/19 04:32:49;;;;;;;5.23;4.83;;;9.40;99.90;;;;;;5017919;28;20421;-75
2023/03/19 04:35:14;;;;;;;4.30;3.90;;;9.40;99.90;;;;;;5022002;28;20470;-77
2023/03/19 04:37:42;;;;;;;5.50;4.20;;;9.40;99.90;;;;;;5018726;28;20260;-77
2023/03/19 04:40:08;;;;;;;5.40;4.30;;;9.40;99.90;;;;;;5028154;28;20232;-76
2023/03/19 04:42:33;;;;;;;4.37;4.00;;;9.40;99.90;;;;;;5011979;28;20432;-77
2023/03/19 04:44:59;;;;;;;6.27;4.93;;;9.50;99.90;;;;;;5019681;28;20417;-77
2023/03/19 04:47:25;;;;;;;5.43;4.93;;;9.50;99.90;;;;;;5023438;28;20223;-76
2023/03/19 04:49:50;;;;;;;6.53;5.60;;;9.50;99.90;;;;;;5016845;28;20182;-77
2023/03/19 04:52:16;;;;;;;4.50;4.00;;;9.50;99.90;;;;;;5013747;28;20251;-77
2023/03/19 04:54:42;;;;;;;7.00;5.43;;;9.50;99.90;;;;;;5026263;28;20215;-76
2023/03/19 04:57:07;;;;;;;5.50;5.00;;;9.50;99.90;;;;;;5020299;28;20178;-77
2023/03/19 04:59:33;;;;;;;6.07;5.50;;;9.50;99.90;;;;;;5020126;28;20207;-77
2023/03/19 05:01:58;;;;;;;5.97;4.87;;;9.60;99.90;;;;;;5011508;28;20206;-78
2023/03/19 05:04:25;;;;;;;6.50;4.93;;;9.60;99.90;;;;;;5019722;28;20182;-75
2023/03/19 05:06:51;;;;;;;4.47;4.10;;;9.60;99.90;;;;;;5020053;28;20187;-79
2023/03/19 05:09:16;;;;;;;5.33;4.70;;;9.70;99.90;;;;;;5027576;28;20515;-77
2023/03/19 05:11:42;;;;;;;5.13;4.50;;;9.70;99.90;;;;;;5011574;28;20248;-77
2023/03/19 05:14:07;;;;;;;10.93;5.07;;;9.70;99.90;;;;;;5020324;28;20178;-77
2023/03/19 05:16:34;;;;;;;4.90;4.37;;;9.70;99.90;;;;;;5023054;28;20265;-77
2023/03/19 05:19:00;;;;;;;9.87;4.23;;;9.70;99.90;;;;;;5015330;28;20221;-77
2023/03/19 05:21:25;;;;;;;6.27;4.00;;;9.70;99.90;;;;;;5014532;28;20443;-76
2023/03/19 05:23:53;;;;;;;4.70;3.30;;;9.70;99.90;;;;;;5030953;28;20184;-77
2023/03/19 05:26:20;;;;;;;8.63;3.77;;;9.80;99.90;;;;;;5021634;28;20661;-77
2023/03/19 05:28:45;;;;;;;8.63;3.70;;;9.80;99.90;;;;;;5025623;28;20785;-77
2023/03/19 05:31:11;;;;;;;4.43;3.20;;;9.70;99.90;;;;;;5020084;28;20461;-77
2023/03/19 05:33:36;;;;;;;9.03;3.97;;;9.70;99.90;;;;;;5018901;28;20178;-78
2023/03/19 05:36:02;;;;;;;12.67;3.53;;;9.70;99.90;;;;;;5014291;28;20217;-77
2023/03/19 05:38:28;;;;;;;5.97;3.80;;;9.70;99.90;;;;;;5015491;28;20217;-77
2023/03/19 05:40:53;;;;;;;4.37;3.50;;;9.70;99.90;;;;;;5023332;28;20667;-76
2023/03/19 05:43:19;;;;;;;4.07;3.30;;;9.60;99.90;;;;;;5015741;28;20194;-76
2023/03/19 05:45:50;;;;;;;4.67;3.77;;;9.60;99.90;;;;;;5021447;28;20260;-76
2023/03/19 05:48:16;;;;;;;4.03;3.37;;;9.70;99.90;;;;;;5014929;28;20313;-76
2023/03/19 05:50:42;;;;;;;3.50;3.20;;;9.70;99.90;;;;;;5014834;28;20977;-76
2023/03/19 05:53:07;;;;;;;3.60;3.30;;;9.80;99.90;;;;;;5014834;28;20277;-73
2023/03/19 05:55:32;;;;;;;3.93;3.50;;;9.70;99.90;;;;;;5018048;28;20503;-74
2023/03/19 05:57:58;;;;;;;4.27;3.03;;;9.80;99.90;;;;;;5033772;28;20657;-74
2023/03/19 06:00:24;;;;;;;5.23;3.43;;;9.70;99.90;;;;;;5017382;28;20186;-75
2023/03/19 06:02:50;;;;;;;4.87;4.40;;;9.70;99.90;;;;;;5020048;28;20374;-75
2023/03/19 06:05:16;;;;;;;4.20;3.80;;;9.70;99.90;;;;;;5015419;28;20266;-75
2023/03/19 06:07:42;;;;;;;4.07;3.63;;;9.70;99.90;;;;;;5025977;28;20499;-73
2023/03/19 06:10:08;;;;;;;5.20;3.23;;;9.70;99.90;;;;;;5017184;28;20186;-73
2023/03/19 06:12:34;;;;;;;4.10;3.70;;;9.70;99.90;;;;;;5006294;28;20983;-74
2023/03/19 06:15:00;;;;;;;5.23;3.30;;;9.80;99.90;;;;;;5021049;28;20420;-75
2023/03/19 06:17:26;;;;;;;3.97;3.57;;;9.80;99.90;;;;;;5014803;28;20429;-75
2023/03/19 06:19:51;;;;;;;6.57;4.50;;;9.80;99.90;;;;;;5012998;28;20221;-75
2023/03/19 06:22:16;;;;;;;5.30;3.90;;;9.80;99.90;;;;;;5013766;28;20456;-73
2023/03/19 06:24:42;;;;;;;4.57;3.20;;;9.80;99.90;;;;;;5022174;28;20182;-75
2023/03/19 06:27:08;;;;;;;4.20;3.63;;;9.90;99.90;;;;;;5013790;28;20190;-73
2023/03/19 06:29:34;;;;;;;5.07;3.80;;;9.80;99.90;;;;;;5021958;28;20244;-75
2023/03/19 06:31:59;;;;;;;3.53;3.23;;;9.90;99.90;;;;;;5013572;28;20453;-75
2023/03/19 06:34:25;;;;;;;7.80;5.63;;;9.90;99.90;;;;;;5013879;28;20244;-75
2023/03/19 06:36:52;;;;;;;5.07;4.53;;;9.90;99.90;;;;;;5020502;28;20207;-74
2023/03/19 06:39:18;;;;;;;5.03;3.60;;;9.90;99.90;;;;;;5021431;28;20214;-75
2023/03/19 06:41:43;;;;;;;4.50;3.43;;;10.00;99.90;;;;;;5018866;28;20432;-75
2023/03/19 06:44:10;;;;;;;10.80;7.40;;;10.00;99.90;;;;;;5016643;28;20651;-74
2023/03/19 06:46:36;;;;;;;4.40;3.60;;;10.00;99.90;;;;;;5005720;28;20167;-75
2023/03/19 06:49:01;;;;;;;3.23;2.93;;;10.10;99.90;;;;;;5019817;28;20420;-73
2023/03/19 06:51:27;;;;;;;5.37;2.53;;;10.10;99.90;;;;;;5014328;28;20582;-74
2023/03/19 06:53:53;;;;;;;4.63;2.10;;;10.20;99.90;;;;;;5019071;28;20585;-75
2023/03/19 06:56:18;;;;;;;4.73;1.80;;;10.30;99.90;;;;;;5015363;28;20190;-75
2023/03/19 06:58:44;;;;;;;3.30;2.30;;;10.50;99.90;;;;;;5013272;28;20242;-75
2023/03/19 07:01:10;;;;;;;2.67;1.77;;;10.70;99.90;;;;;;5012973;28;20718;-73
2023/03/19 07:03:35;;;;;;;6.30;2.30;;;10.80;99.90;;;;;;5005358;28;20532;-75
2023/03/19 07:06:01;;;;;;;2.67;1.80;;;10.80;99.90;;;;;;5013065;28;20456;-74
2023/03/19 07:08:28;;;;;;;3.23;1.90;;;10.90;99.90;;;;;;5012835;28;20189;-74
2023/03/19 07:10:55;;;;;;;4.00;2.40;;;11.00;99.90;;;;;;5012902;28;20198;-74
2023/03/19 07:13:21;;;;;;;3.80;2.20;;;11.10;99.90;;;;;;5020787;28;20860;-75
2023/03/19 07:15:47;;;;;;;3.43;2.60;;;11.10;99.90;;;;;;5013379;28;20425;-74
2023/03/19 07:18:12;;;;;;;5.53;2.83;;;11.20;99.90;;;;;;5020607;28;20214;-75
2023/03/19 07:20:38;;;;;;;3.17;2.60;;;11.20;99.90;;;;;;5015630;28;20864;-74
2023/03/19 07:23:03;;;;;;;2.07;1.87;;;11.20;99.90;;;;;;5016881;28;20182;-73
2023/03/19 07:25:29;;;;;;;3.50;2.20;;;11.30;99.90;;;;;;5022986;28;20186;-75
2023/03/19 07:27:55;;;;;;;2.63;2.40;;;11.30;99.90;;;;;;5018304;28;20183;-74
2023/03/19 07:30:20;;;;;;;2.63;1.77;;;11.40;99.90;;;;;;5020389;28;20543;-73
2023/03/19 07:32:46;;;;;;;2.77;1.93;;;11.40;99.90;;;;;;5012286;28;20655;-74
2023/03/19 07:35:13;;;;;;;2.10;1.90;;;11.50;99.90;;;;;;5011957;28;20257;-74
2023/03/19 07:37:38;;;;;;;3.00;2.47;;;11.50;99.90;;;;;;5020169;28;20181;-75
2023/03/19 07:40:06;;;;;;;1.93;1.80;;;11.60;99.90;;;;;;5019480;28;20460;-73
2023/03/19 07:42:31;;;;;;;3.37;1.83;;;11.60;99.90;;;;;;5011691;28;20206;-75
2023/03/19 07:44:57;;;;;;;1.83;1.67;;;11.60;99.90;;;;;;5013003;28;20417;-73
2023/03/19 07:47:22;;;;;;;1.73;1.63;;;11.80;99.90;;;;;;5010696;28;20186;-72
2023/03/19 07:49:48;;;;;;;5.60;2.50;;;11.80;99.90;;;;;;5022421;28;20210;-75
2023/03/19 07:52:13;;;;;;;3.00;1.90;;;11.80;99.90;;;;;;5014380;28;20210;-75
2023/03/19 07:54:39;;;;;;;3.60;2.10;;;11.90;99.90;;;;;;5018089;28;20174;-71
2023/03/19 07:57:05;;;;;;;2.73;2.20;;;12.00;99.90;;;;;;5019533;28;20266;-76
2023/03/19 07:59:30;;;;;;;2.30;1.90;;;12.00;99.90;;;;;;5019577;28;20213;-73
2023/03/19 08:01:56;;;;;;;3.10;1.83;;;12.10;99.90;;;;;;5011780;28;20198;-72
2023/03/19 08:04:21;;;;;;;2.40;2.10;;;12.10;99.90;;;;;;5029555;28;20658;-73
2023/03/19 08:06:47;;;;;;;1.77;1.30;;;12.20;99.90;;;;;;5032049;28;20188;-72
2023/03/19 08:09:13;;;;;;;1.90;1.20;;;12.20;99.90;;;;;;5024132;28;20629;-74
2023/03/19 08:11:39;;;;;;;2.17;1.97;;;12.30;99.90;;;;;;5031548;28;20429;-72
2023/03/19 08:14:04;;;;;;;3.57;1.87;;;12.40;99.90;;;;;;5029667;28;20190;-72
2023/03/19 08:16:30;;;;;;;4.10;1.87;;;12.50;99.90;;;;;;5028683;28;20611;-74
2023/03/19 08:18:55;;;;;;;1.70;1.60;;;12.60;99.90;;;;;;5030631;28;20209;-73
2023/03/19 08:21:21;;;;;;;3.30;1.90;;;12.70;99.90;;;;;;5027517;28;20252;-71
2023/03/19 08:23:46;;;;;;;2.70;1.80;;;12.80;99.90;;;;;;5030657;28;20194;-73
2023/03/19 08:26:12;;;;;;;2.13;1.77;;;12.90;99.90;;;;;;5030423;28;20709;-73
2023/03/19 08:28:37;;;;;;;3.90;1.77;;;12.90;99.90;;;;;;5030557;28;20200;-72
2023/03/19 08:31:08;;;;;;;4.30;2.27;;;12.90;99.90;;;;;;5030031;28;20228;-73
2023/03/19 08:33:34;;;;;;;4.20;1.83;;;13.00;99.90;;;;;;5030457;28;20205;-74
2023/03/19 08:36:11;;;;;;;6.20;2.50;;;13.00;99.90;;;;;;5030353;28;20965;-74
2023/03/19 08:38:37;;;;;;;5.07;2.10;;;13.10;99.90;;;;;;5030425;28;20267;-74
2023/03/19 08:41:05;;;;;;;2.87;2.50;;;13.20;99.90;;;;;;5030101;28;20444;-74
2023/03/19 08:43:32;;;;;;;5.30;2.67;;;13.30;99.90;;;;;;5030441;28;20436;-74
2023/03/19 08:45:58;;;;;;;9.57;2.80;;;13.50;99.90;;;;;;5030438;28;20451;-74
2023/03/19 08:48:23;;;;;;;53.80;2.63;;;13.60;99.90;;;;;;5030244;28;20960;-74
2023/03/19 08:50:58;;;;;;;71.40;4.93;;;13.70;99.90;;;;;;5030375;28;20233;-72
2023/03/19 08:53:25;;;;;;;46.87;2.60;;;13.80;99.90;;;;;;5024429;28;20794;-75
2023/03/19 08:55:52;;;;;;;1999.90;999.90;;;14.20;99.90;;;;;;5030213;28;20448;-74
2023/03/19 08:58:18;;;;;;;1999.90;999.90;;;14.40;99.90;;;;;;5030223;28;20472;-73
2023/03/19 09:00:43;;;;;;;98.60;16.53;;;14.90;99.90;;;;;;5030078;28;20534;-72
2023/03/19 09:03:09;;;;;;;90.67;8.77;;;15.00;99.90;;;;;;5029877;28;20205;-73
2023/03/19 09:05:35;;;;;;;88.30;7.93;;;15.00;99.90;;;;;;5028308;28;20268;-73
2023/03/19 09:08:00;;;;;;;1999.90;999.90;;;15.10;99.90;;;;;;5021217;28;20217;-74
2023/03/19 09:10:26;;;;;;;264.23;242.47;;;15.40;99.90;;;;;;5027754;28;20468;-73
2023/03/19 09:12:51;;;;;;;516.20;475.57;;;16.10;99.90;;;;;;5028883;28;20232;-74
2023/03/19 09:15:17;;;;;;;1999.90;999.90;;;16.90;99.90;;;;;;5029740;28;20209;-74
2023/03/19 09:17:43;;;;;;;1999.90;999.90;;;17.10;99.90;;;;;;5030051;28;20247;-74
2023/03/19 09:20:09;;;;;;;1999.90;999.90;;;17.30;99.90;;;;;;5030096;28;20729;-73
2023/03/19 09:22:34;;;;;;;6.43;2.10;;;17.90;99.90;;;;;;5026558;28;20461;-73
2023/03/19 09:25:00;;;;;;;3.07;1.97;;;18.30;99.90;;;;;;5030053;28;20971;-72
2023/03/19 09:27:26;;;;;;;2.07;1.83;;;18.50;99.90;;;;;;5029765;28;20295;-74
2023/03/19 09:29:51;;;;;;;8.40;4.60;;;18.40;99.90;;;;;;5029864;28;20204;-73
2023/03/19 09:32:17;;;;;;;12.90;5.50;;;18.20;99.90;;;;;;5029509;28;20233;-73
2023/03/19 09:34:42;;;;;;;2.33;2.10;;;17.70;99.90;;;;;;5029732;28;20198;-72
2023/03/19 09:37:10;;;;;;;4.50;2.40;;;17.60;99.90;;;;;;5028425;28;20216;-72
2023/03/19 09:39:36;;;;;;;6.17;3.40;;;17.40;99.90;;;;;;5029378;28;20284;-74
2023/03/19 09:42:37;;;;;;;3.43;1.53;;;17.30;99.90;;;;;;5029600;28;20444;-71
2023/03/19 09:45:03;;;;;;;4.47;2.17;;;17.10;99.90;;;;;;5018953;28;20204;-70
2023/03/19 09:47:32;;;;;;;5.13;2.37;;;17.30;99.90;;;;;;5029374;28;20440;-71
2023/03/19 09:50:03;;;;;;;8.50;1.80;;;17.60;99.90;;;;;;5025629;28;20499;-70
2023/03/19 09:52:35;;;;;;;5.63;2.20;;;17.90;99.90;;;;;;5020913;28;20472;-71
2023/03/19 09:55:12;;;;;;;5.60;2.40;;;18.70;99.90;;;;;;5029756;28;20936;-69
2023/03/19 09:57:38;;;;;;;13.00;2.45;;;19.10;99.90;;;;;;5028073;28;20453;-69
2023/03/19 10:00:21;;;;;;;15.10;2.67;;;19.20;99.90;;;;;;5029517;28;20221;-70
2023/03/19 10:03:11;;;;;;;16.58;2.05;;;19.40;99.90;;;;;;5012319;28;20424;-68
2023/03/19 10:06:00;;;;;;;13.70;2.17;;;19.20;99.90;;;;;;5003615;28;20213;-69
2023/03/19 10:08:26;;;;;;;12.97;1.50;;;18.60;99.90;;;;;;5029674;28;20449;-70
2023/03/19 10:11:08;;;;;;;18.20;2.33;;;18.60;99.90;;;;;;5029498;28;20936;-71
2023/03/19 10:14:02;;;;;;;23.33;2.03;;;18.80;99.90;;;;;;5027694;28;20210;-71
2023/03/19 10:16:29;;;;;;;12.70;2.05;;;19.00;99.90;;;;;;5027526;28;21092;-69
2023/03/19 10:19:01;;;;;;;7.70;1.70;;;19.40;99.90;;;;;;5029412;28;20301;-72
2023/03/19 10:21:36;;;;;;;10.93;2.22;;;19.90;99.90;;;;;;5022815;28;20409;-72
2023/03/19 10:24:21;;;;;;;3.13;1.67;;;20.40;99.90;;;;;;5031922;28;20626;-71
2023/03/19 10:26:48;;;;;;;2.30;2.10;;;20.80;99.90;;;;;;5031205;28;20429;-70
2023/03/19 10:29:18;;;;;;;3.13;1.77;;;21.10;99.90;;;;;;5032611;28;20910;-73
2023/03/19 10:32:15;;;;;;;3.20;1.60;;;21.20;99.90;;;;;;5030573;28;20488;-72
2023/03/19 10:34:43;;;;;;;4.93;1.43;;;21.20;99.90;;;;;;5032360;28;20449;-72
2023/03/19 10:37:12;;;;;;;2.20;1.80;;;21.30;99.90;;;;;;5032942;28;20466;-72
2023/03/19 10:39:40;;;;;;;1.30;1.20;;;21.10;99.90;;;;;;5031900;28;20480;-70
2023/03/19 10:42:38;;;;;;;3.50;2.10;;;20.80;99.90;;;;;;5032539;28;20448;-69
2023/03/19 10:45:22;;;;;;;2.03;1.83;;;20.60;99.90;;;;;;5026946;28;20448;-70
2023/03/19 10:47:47;;;;;;;1.20;1.10;;;20.60;99.90;;;;;;5032754;28;20432;-72
2023/03/19 10:50:19;;;;;;;6.33;1.60;;;20.40;99.90;;;;;;5032481;28;20453;-71
2023/03/19 10:52:50;;;;;;;3.80;1.97;;;19.90;99.90;;;;;;5024653;28;20280;-73
2023/03/19 10:55:22;;;;;;;4.83;1.30;;;19.90;99.90;;;;;;5032618;28;20794;-73
2023/03/19 10:57:50;;;;;;;3.33;3.03;;;20.00;99.90;;;;;;5032796;28;20519;-73
2023/03/19 11:00:23;;;;;;;2.03;1.30;;;20.30;99.90;;;;;;5025605;28;20576;-73
2023/03/19 11:02:52;;;;;;;2.40;1.17;;;20.00;99.90;;;;;;5032554;28;20436;-73
2023/03/19 11:05:21;;;;;;;2.20;1.53;;;20.00;99.90;;;;;;5032232;28;20555;-72
2023/03/19 11:07:58;;;;;;;2.10;1.37;;;20.00;99.90;;;;;;5023950;28;20449;-73
2023/03/19 11:10:26;;;;;;;3.00;1.70;;;19.80;99.90;;;;;;5031827;28;20468;-72
2023/03/19 11:12:56;;;;;;;3.83;1.57;;;19.80;99.90;;;;;;5031194;28;20444;-72
2023/03/19 11:15:27;;;;;;;4.27;1.83;;;19.80;99.90;;;;;;5031987;28;20463;-71
2023/03/19 11:17:58;;;;;;;3.87;1.60;;;20.00;99.90;;;;;;5032303;28;20447;-73
2023/03/19 11:20:27;;;;;;;2.93;1.80;;;20.10;99.90;;;;;;5031542;28;20467;-72
2023/03/19 11:22:55;;;;;;;2.90;1.83;;;19.70;99.90;;;;;;5028057;28;20805;-73
2023/03/19 11:25:39;;;;;;;7.33;2.70;;;19.30;99.90;;;;;;5031722;28;20448;-72
2023/03/19 11:28:16;;;;;;;3.97;1.50;;;19.20;99.90;;;;;;5032076;28;20425;-71
2023/03/19 11:30:47;;;;;;;2.50;1.57;;;19.20;99.90;;;;;;5031326;28;20809;-71
2023/03/19 11:33:42;;;;;;;7.80;3.60;;;19.10;99.90;;;;;;5030697;28;20435;-72
2023/03/19 11:36:38;;;;;;;1.80;1.60;;;19.20;99.90;;;;;;5032123;28;20445;-72
2023/03/19 11:39:14;;;;;;;2.00;1.50;;;19.20;99.90;;;;;;5028565;28;20533;-72
2023/03/19 11:41:47;;;;;;;2.63;1.70;;;19.40;99.90;;;;;;5024005;28;20538;-73
2023/03/19 11:44:36;;;;;;;2.77;2.13;;;19.70;99.90;;;;;;5023769;28;20436;-74
2023/03/19 11:47:17;;;;;;;3.47;1.70;;;20.60;99.90;;;;;;5032341;28;20433;-73
2023/03/19 11:49:53;;;;;;;2.23;1.30;;;20.90;99.90;;;;;;5024142;28;20421;-73
2023/03/19 11:52:21;;;;;;;3.07;1.63;;;20.40;99.90;;;;;;5010648;28;20523;-74
2023/03/19 11:55:03;;;;;;;2.47;2.10;;;20.00;99.90;;;;;;5012609;28;20529;-74
2023/03/19 11:57:47;;;;;;;1.90;1.70;;;19.90;99.90;;;;;;5020011;28;20430;-75
2023/03/19 12:00:46;;;;;;;3.80;2.00;;;19.80;99.90;;;;;;5025925;28;20457;-75
2023/03/19 12:03:15;;;;;;;2.10;1.90;;;19.60;99.90;;;;;;5008989;28;20521;-75
2023/03/19 12:06:02;;;;;;;2.13;1.50;;;19.40;99.90;;;;;;5022691;28;20432;-74
2023/03/19 12:09:10;;;;;;;4.70;1.73;;;19.40;99.90;;;;;;5030856;28;20416;-73
2023/03/19 12:12:10;;;;;;;2.77;1.80;;;19.30;99.90;;;;;;4980964;28;20440;-74
2023/03/19 12:14:46;;;;;;;3.43;1.63;;;19.20;99.90;;;;;;5030977;28;20420;-74
2023/03/19 12:17:25;;;;;;;4.20;1.60;;;19.40;99.90;;;;;;5031739;28;20423;-75
2023/03/19 12:20:17;;;;;;;1.67;1.57;;;19.40;99.90;;;;;;5028170;28;20492;-74
2023/03/19 12:22:58;;;;;;;7.20;1.80;;;19.50;99.90;;;;;;5005225;28;20492;-75
2023/03/19 12:25:43;;;;;;;3.37;1.87;;;19.30;99.90;;;;;;5031591;28;20416;-75
2023/03/19 12:28:29;;;;;;;2.17;1.63;;;19.30;99.90;;;;;;5019816;28;20405;-71
2023/03/19 12:31:14;;;;;;;2.43;1.73;;;19.20;99.90;;;;;;5022935;28;20460;-77
2023/03/19 12:33:51;;;;;;;2.33;1.40;;;19.40;99.90;;;;;;5031884;28;20994;-80
2023/03/19 12:36:24;;;;;;;1.80;1.70;;;19.30;99.90;;;;;;5014736;28;20798;-80
2023/03/19 12:39:24;;;;;;;2.40;1.50;;;19.40;99.90;;;;;;5014170;28;20850;-77
2023/03/19 12:41:52;;;;;;;5.20;1.73;;;19.30;99.90;;;;;;4993076;28;20465;-75
2023/03/19 12:44:24;;;;;;;4.33;1.60;;;19.30;99.90;;;;;;5006497;28;20413;-75
2023/03/19 12:46:58;;;;;;;1.50;1.40;;;18.90;99.90;;;;;;5014508;28;20478;-73
2023/03/19 12:49:35;;;;;;;1.80;1.70;;;18.80;99.90;;;;;;5024357;28;20432;-75
2023/03/19 12:52:31;;;;;;;2.17;1.80;;;18.50;99.90;;;;;;5005467;28;20441;-74
2023/03/19 12:55:06;;;;;;;6.90;1.33;;;18.10;99.90;;;;;;5009715;28;20425;-75
2023/03/19 12:57:50;;;;;;;1.73;1.63;;;17.90;99.90;;;;;;5006808;28;20804;-75
2023/03/19 13:00:20;;;;;;;2.80;1.67;;;17.70;99.90;;;;;;5011083;28;20536;-73
2023/03/19 13:03:02;;;;;;;3.10;1.60;;;17.40;99.90;;;;;;5001461;28;20496;-76
2023/03/19 13:05:51;;;;;;;4.17;1.43;;;17.00;99.90;;;;;;4982336;28;20476;-73
2023/03/19 13:08:35;;;;;;;2.50;1.80;;;16.70;99.90;;;;;;5002760;28;20760;-73
2023/03/19 13:11:05;;;;;;;4.43;1.67;;;16.10;99.90;;;;;;5009314;28;20448;-72
2023/03/19 13:13:42;;;;;;;2.97;1.30;;;15.70;99.90;;;;;;5005388;28;20437;-75
2023/03/19 13:16:25;;;;;;;2.60;2.00;;;15.20;99.90;;;;;;5010031;28;20508;-79
2023/03/19 13:19:14;;;;;;;3.60;1.80;;;14.90;99.90;;;;;;5014050;28;20464;-74
2023/03/19 13:21:41;;;;;;;1.73;1.60;;;14.70;99.90;;;;;;5011225;28;20469;-74
2023/03/19 13:24:28;;;;;;;2.13;1.80;;;14.40;99.90;;;;;;5010627;28;20421;-74
2023/03/19 13:26:57;;;;;;;2.80;2.13;;;14.20;99.90;;;;;;5009373;28;20441;-75
2023/03/19 13:29:28;;;;;;;2.57;2.10;;;14.30;99.90;;;;;;5018984;28;20422;-74
2023/03/19 13:32:00;;;;;;;2.53;2.30;;;14.50;99.90;;;;;;5011068;28;20453;-77
2023/03/19 13:34:27;;;;;;;3.20;2.00;;;14.70;99.90;;;;;;5011232;28;20425;-77
2023/03/19 13:37:17;;;;;;;3.03;2.70;;;14.80;99.90;;;;;;5013434;28;20465;-78
2023/03/19 13:39:43;;;;;;;3.70;2.43;;;14.90;99.90;;;;;;5029240;28;20452;-77
2023/03/19 13:42:20;;;;;;;2.87;1.90;;;14.90;99.90;;;;;;5010864;28;20811;-78
2023/03/19 13:44:55;;;;;;;3.37;2.10;;;14.90;99.90;;;;;;5010992;28;20428;-77
2023/03/19 13:47:36;;;;;;;4.13;1.80;;;15.00;99.90;;;;;;5011178;28;20504;-75
2023/03/19 13:50:09;;;;;;;3.87;2.17;;;15.00;99.90;;;;;;5010815;28;20413;-76
2023/03/19 13:52:38;;;;;;;2.33;2.00;;;15.00;99.90;;;;;;5009177;28;20489;-75
2023/03/19 13:55:23;;;;;;;4.00;2.40;;;15.00;99.90;;;;;;5009492;28;21009;-74
2023/03/19 13:58:11;;;;;;;4.13;2.90;;;14.70;99.90;;;;;;5014292;28;20428;-75
2023/03/19 14:00:45;;;;;;;5.50;2.90;;;14.70;99.90;;;;;;5001094;28;20945;-74
2023/03/19 14:03:24;;;;;;;4.80;2.83;;;14.60;99.90;;;;;;5007005;28;20421;-75
2023/03/19 14:05:52;;;;;;;4.67;2.67;;;14.60;99.90;;;;;;5023420;28;20514;-74
2023/03/19 14:08:22;;;;;;;4.43;3.70;;;14.50;99.90;;;;;;5020159;28;20422;-75
2023/03/19 14:10:58;;;;;;;5.00;3.30;;;14.50;99.90;;;;;;5013946;28;20926;-73
2023/03/19 14:13:40;;;;;;;3.43;3.13;;;14.50;99.90;;;;;;5013678;28;20417;-74
2023/03/19 14:16:15;;;;;;;5.20;3.23;;;14.60;99.90;;;;;;5010206;28;20479;-74
2023/03/19 14:18:42;;;;;;;3.93;2.90;;;14.70;99.90;;;;;;5001288;28;20974;-74
2023/03/19 14:21:14;;;;;;;3.90;2.93;;;14.80;99.90;;;;;;4994884;28;21117;-75
2023/03/19 14:23:50;;;;;;;3.70;2.50;;;14.90;99.90;;;;;;4995448;28;20493;-74
2023/03/19 14:26:24;;;;;;;2.40;2.20;;;14.90;99.90;;;;;;4994708;28;20433;-75
2023/03/19 14:29:04;;;;;;;4.77;2.23;;;15.10;99.90;;;;;;5008064;28;20418;-74
2023/03/19 14:31:52;;;;;;;4.40;2.67;;;15.30;99.90;;;;;;5012794;28;20467;-73
2023/03/19 14:34:22;;;;;;;4.37;2.40;;;15.40;99.90;;;;;;5007976;28;20409;-74